Time;durP1;ratioP1;P1;durP2;ratioP2;P2;SDS_P1;SDS_P2;PMS_P1;PMS_P2;Temp;Humidity;BMP_temperature;BMP_pressure;BME280_temperature;BME280_humidity;BME280_pressure;Samples;Min_cycle;Max_cycle;Signal;HPM_P1;HPM_P2
2022/03/26 00:01:13;;;;;;;;;;;;;;;-145.06;0.00;60892.56;4714172;29;19915;-89
2022/03/26 00:03:52;;;;;;;;;;;;;;;-145.06;0.00;60892.56;4701995;29;19923;-88
2022/03/26 00:06:31;;;;;;;;;;;;;;;-145.06;0.00;60892.56;4706168;29;19912;-89
2022/03/26 00:09:10;;;;;;;;;;;;;;;-145.06;0.00;60892.56;4708739;29;20247;-89
2022/03/26 00:11:49;;;;;;;;;;;;;;;-145.06;0.00;60892.56;4707906;29;19915;-88
2022/03/26 00:14:28;;;;;;;;;;;;;;;-145.06;0.00;60892.56;4708031;29;19916;-88
2022/03/26 00:17:07;;;;;;;;;;;;;;;-145.06;0.00;60892.56;4708194;29;19912;-89
2022/03/26 00:19:46;;;;;;;;;;;;;;;-145.06;0.00;60892.56;4708008;29;19920;-88
2022/03/26 00:22:25;;;;;;;;;;;;;;;-145.06;0.00;60892.56;4708001;29;19916;-89
2022/03/26 00:25:04;;;;;;;;;;;;;;;-145.06;0.00;60892.56;4709663;29;19920;-89
2022/03/26 00:27:43;;;;;;;;;;;;;;;-145.06;0.00;60892.56;4708294;29;19924;-89
2022/03/26 00:30:22;;;;;;;;;;;;;;;-145.06;0.00;60892.56;4706324;29;19912;-89
2022/03/26 00:33:01;;;;;;;;;;;;;;;-145.06;0.00;60892.56;4705246;29;19916;-87
2022/03/26 00:35:40;;;;;;;;;;;;;;;-145.06;0.00;60892.56;4707448;29;19998;-88
2022/03/26 00:38:19;;;;;;;;;;;;;;;-145.06;0.00;60892.56;4709875;29;19916;-91
2022/03/26 00:40:58;;;;;;;;;;;;;;;-145.06;0.00;60892.56;4707503;29;19911;-89
2022/03/26 00:43:37;;;;;;;;;;;;;;;-145.06;0.00;60892.56;4708316;29;19919;-90
2022/03/26 00:46:16;;;;;;;;;;;;;;;-145.06;0.00;60892.56;4707749;29;20244;-89
2022/03/26 00:48:56;;;;;;;;;;;;;;;-145.06;0.00;60892.56;4706903;29;19968;-89
2022/03/26 00:51:35;;;;;;;;;;;;;;;-145.06;0.00;60892.56;4707061;29;19912;-90
2022/03/26 00:54:14;;;;;;;;;;;;;;;-145.06;0.00;60892.56;4707146;29;19916;-89
2022/03/26 00:56:53;;;;;;;;;;;;;;;-145.06;0.00;60892.56;4710581;29;20343;-89
2022/03/26 00:59:32;;;;;;;;;;;;;;;-145.06;0.00;60892.56;4711927;29;20002;-89
2022/03/26 01:02:12;;;;;;;;;;;;;;;-145.06;0.00;60892.56;4698542;29;20003;-89
2022/03/26 01:04:50;;;;;;;;;;;;;;;-145.06;0.00;60892.56;4703807;29;19912;-89
2022/03/26 01:07:29;;;;;;;;;;;;;;;-145.06;0.00;60892.56;4710449;29;19955;-90
2022/03/26 01:10:08;;;;;;;;;;;;;;;-145.06;0.00;60892.56;4710624;29;19916;-89
2022/03/26 01:12:47;;;;;;;;;;;;;;;-145.06;0.00;60892.56;4711206;29;20393;-89
2022/03/26 01:15:26;;;;;;;;;;;;;;;-145.06;0.00;60892.56;4710675;29;19915;-89
2022/03/26 01:18:06;;;;;;;;;;;;;;;-145.06;0.00;60892.56;4703160;29;19974;-90
2022/03/26 01:20:45;;;;;;;;;;;;;;;-145.06;0.00;60892.56;4704369;29;19920;-89
2022/03/26 01:23:23;;;;;;;;;;;;;;;-145.06;0.00;60892.56;4704862;29;19920;-90
2022/03/26 01:26:03;;;;;;;;;;;;;;;-145.06;0.00;60892.56;4702452;29;19920;-88
2022/03/26 01:28:43;;;;;;;;;;;;;;;-145.06;0.00;60892.56;4702391;29;19923;-90
2022/03/26 01:31:22;;;;;;;;;;;;;;;-145.06;0.00;60892.56;4709111;29;19911;-90
2022/03/26 01:34:01;;;;;;;;;;;;;;;-145.06;0.00;60892.56;4712509;29;19919;-89
2022/03/26 01:36:41;;;;;;;;;;;;;;;-145.06;0.00;60892.56;4710863;29;19916;-89
2022/03/26 01:39:22;;;;;;;;;;;;;;;-145.06;0.00;60892.56;4710606;29;19915;-90
2022/03/26 01:42:02;;;;;;;;;;;;;;;-145.06;0.00;60892.56;4710167;29;19919;-89
2022/03/26 01:44:41;;;;;;;;;;;;;;;-145.06;0.00;60892.56;4695695;29;19916;-88
2022/03/26 01:47:20;;;;;;;;;;;;;;;-145.06;0.00;60892.56;4708072;29;19916;-89
2022/03/26 01:49:59;;;;;;;;;;;;;;;-145.06;0.00;60892.56;4707413;29;20291;-90
2022/03/26 01:52:38;;;;;;;;;;;;;;;-145.06;0.00;60892.56;4710321;29;19915;-89
2022/03/26 01:55:18;;;;;;;;;;;;;;;-145.06;0.00;60892.56;4710285;29;19916;-90
2022/03/26 01:57:57;;;;;;;;;;;;;;;-145.06;0.00;60892.56;4710219;29;20267;-89
2022/03/26 02:00:36;;;;;;;;;;;;;;;-145.06;0.00;60892.56;4708764;29;20595;-89
2022/03/26 02:03:15;;;;;;;;;;;;;;;-145.06;0.00;60892.56;4709626;29;19920;-89
2022/03/26 02:05:55;;;;;;;;;;;;;;;-145.06;0.00;60892.56;4710257;29;19911;-89
2022/03/26 02:08:34;;;;;;;;;;;;;;;-145.06;0.00;60892.56;4709875;29;19919;-89
2022/03/26 02:11:13;;;;;;;;;;;;;;;-145.06;0.00;60892.56;4709948;29;20355;-89
2022/03/26 02:13:53;;;;;;;;;;;;;;;-145.06;0.00;60892.56;4703779;29;19915;-89
2022/03/26 02:16:32;;;;;;;;;;;;;;;-145.06;0.00;60892.56;4701710;29;20362;-89
2022/03/26 02:19:11;;;;;;;;;;;;;;;-145.06;0.00;60892.56;4705031;29;19916;-89
2022/03/26 02:21:51;;;;;;;;;;;;;;;-145.06;0.00;60892.56;4707728;29;20271;-89
2022/03/26 02:24:29;;;;;;;;;;;;;;;-145.06;0.00;60892.56;4707683;29;19920;-90
2022/03/26 02:27:08;;;;;;;;;;;;;;;-145.06;0.00;60892.56;4697014;29;19916;-89
2022/03/26 02:29:48;;;;;;;;;;;;;;;-145.06;0.00;60892.56;4693624;29;19947;-90
2022/03/26 02:32:27;;;;;;;;;;;;;;;-145.06;0.00;60892.56;4692343;29;19963;-90
2022/03/26 02:35:07;;;;;;;;;;;;;;;-145.06;0.00;60892.56;4700697;29;20131;-89
2022/03/26 02:37:45;;;;;;;;;;;;;;;-145.06;0.00;60892.56;4703892;29;19912;-90
2022/03/26 02:40:25;;;;;;;;;;;;;;;-145.06;0.00;60892.56;4709658;29;19915;-89
2022/03/26 02:43:05;;;;;;;;;;;;;;;-145.06;0.00;60892.56;4709152;29;20375;-89
2022/03/26 02:45:45;;;;;;;;;;;;;;;-145.06;0.00;60892.56;4710380;29;19963;-90
2022/03/26 02:48:23;;;;;;;;;;;;;;;-145.06;0.00;60892.56;4709181;29;19931;-88
2022/03/26 02:51:02;;;;;;;;;;;;;;;-145.06;0.00;60892.56;4709219;29;19911;-89
2022/03/26 02:53:41;;;;;;;;;;;;;;;-145.06;0.00;60892.56;4708896;29;19999;-89
2022/03/26 02:56:20;;;;;;;;;;;;;;;-145.06;0.00;60892.56;4705241;29;19919;-88
2022/03/26 02:58:59;;;;;;;;;;;;;;;-145.06;0.00;60892.56;4709068;29;19915;-89
2022/03/26 03:01:38;;;;;;;;;;;;;;;-145.06;0.00;60892.56;4708862;29;19920;-89
2022/03/26 03:04:17;;;;;;;;;;;;;;;-145.06;0.00;60892.56;4709333;29;19916;-89
2022/03/26 03:06:56;;;;;;;;;;;;;;;-145.06;0.00;60892.56;4704050;29;20035;-89
2022/03/26 03:09:35;;;;;;;;;;;;;;;-145.06;0.00;60892.56;4707023;29;19919;-90
2022/03/26 03:12:14;;;;;;;;;;;;;;;-145.06;0.00;60892.56;4708477;29;19916;-89
2022/03/26 03:14:53;;;;;;;;;;;;;;;-145.06;0.00;60892.56;4706932;29;19960;-89
2022/03/26 03:17:35;;;;;;;;;;;;;;;-145.06;0.00;60892.56;4708701;29;19912;-89
2022/03/26 03:20:15;;;;;;;;;;;;;;;-145.06;0.00;60892.56;4708620;29;19916;-89
2022/03/26 03:22:54;;;;;;;;;;;;;;;-145.06;0.00;60892.56;4706381;29;19920;-90
2022/03/26 03:25:33;;;;;;;;;;;;;;;-145.06;0.00;60892.56;4700941;29;19915;-88
2022/03/26 03:28:12;;;;;;;;;;;;;;;-145.06;0.00;60892.56;4708532;29;20355;-88
2022/03/26 03:30:51;;;;;;;;;;;;;;;-145.06;0.00;60892.56;4694032;29;20267;-90
2022/03/26 03:33:30;;;;;;;;;;;;;;;-145.06;0.00;60892.56;4708188;29;19915;-88
2022/03/26 03:36:09;;;;;;;;;;;;;;;-145.06;0.00;60892.56;4708961;29;19912;-89
2022/03/26 03:38:48;;;;;;;;;;;;;;;-145.06;0.00;60892.56;4704372;29;19916;-89
2022/03/26 03:41:27;;;;;;;;;;;;;;;-145.06;0.00;60892.56;4702490;29;20279;-89
2022/03/26 03:44:06;;;;;;;;;;;;;;;-145.06;0.00;60892.56;4702021;29;19916;-89
2022/03/26 03:46:45;;;;;;;;;;;;;;;-145.06;0.00;60892.56;4705422;29;19912;-89
2022/03/26 03:49:26;;;;;;;;;;;;;;;-145.06;0.00;60892.56;4701094;29;19938;-88
2022/03/26 03:52:06;;;;;;;;;;;;;;;-145.06;0.00;60892.56;4708219;29;19912;-89
2022/03/26 03:54:44;;;;;;;;;;;;;;;-145.06;0.00;60892.56;4711022;29;20394;-90
2022/03/26 03:57:24;;;;;;;;;;;;;;;-145.06;0.00;60892.56;4710105;29;19923;-89
2022/03/26 04:00:02;;;;;;;;;;;;;;;-145.06;0.00;60892.56;4708083;29;20378;-89
2022/03/26 04:02:42;;;;;;;;;;;;;;;-145.06;0.00;60892.56;4707004;29;19920;-89
2022/03/26 04:05:21;;;;;;;;;;;;;;;-145.06;0.00;60892.56;4702485;29;20382;-89
2022/03/26 04:08:00;;;;;;;;;;;;;;;-145.06;0.00;60892.56;4708416;29;19916;-88
2022/03/26 04:10:38;;;;;;;;;;;;;;;-145.06;0.00;60892.56;4708996;29;19920;-89
2022/03/26 04:13:18;;;;;;;;;;;;;;;-145.06;0.00;60892.56;4705817;29;19920;-89
2022/03/26 04:15:57;;;;;;;;;;;;;;;-145.06;0.00;60892.56;4708114;29;19919;-90
2022/03/26 04:18:36;;;;;;;;;;;;;;;-145.06;0.00;60892.56;4707978;29;20287;-89
2022/03/26 04:21:15;;;;;;;;;;;;;;;-145.06;0.00;60892.56;4707865;29;19919;-88
2022/03/26 04:23:54;;;;;;;;;;;;;;;-145.06;0.00;60892.56;4707854;29;20267;-89
2022/03/26 04:26:33;;;;;;;;;;;;;;;-145.06;0.00;60892.56;4707976;29;19916;-89
2022/03/26 04:29:12;;;;;;;;;;;;;;;-145.06;0.00;60892.56;4712688;29;20150;-87
2022/03/26 04:31:51;;;;;;;;;;;;;;;-145.06;0.00;60892.56;4707084;29;20012;-89
2022/03/26 04:34:30;;;;;;;;;;;;;;;-145.06;0.00;60892.56;4701698;29;19920;-89
2022/03/26 04:37:09;;;;;;;;;;;;;;;-145.06;0.00;60892.56;4711943;29;19959;-90
2022/03/26 04:39:48;;;;;;;;;;;;;;;-145.06;0.00;60892.56;4710506;29;20362;-90
2022/03/26 04:42:27;;;;;;;;;;;;;;;-145.06;0.00;60892.56;4712773;29;19923;-88
2022/03/26 04:45:07;;;;;;;;;;;;;;;-145.06;0.00;60892.56;4708219;29;19991;-88
2022/03/26 04:47:46;;;;;;;;;;;;;;;-145.06;0.00;60892.56;4711054;29;19916;-89
2022/03/26 04:50:25;;;;;;;;;;;;;;;-145.06;0.00;60892.56;4709086;29;20414;-89
2022/03/26 04:53:04;;;;;;;;;;;;;;;-145.06;0.00;60892.56;4711544;29;19912;-88
2022/03/26 04:55:43;;;;;;;;;;;;;;;-145.06;0.00;60892.56;4711329;29;20370;-89
2022/03/26 04:58:22;;;;;;;;;;;;;;;-145.06;0.00;60892.56;4711498;29;20018;-88
2022/03/26 05:01:01;;;;;;;;;;;;;;;-145.06;0.00;60892.56;4710551;29;20369;-90
2022/03/26 05:03:40;;;;;;;;;;;;;;;-145.06;0.00;60892.56;4705885;29;19916;-89
2022/03/26 05:06:19;;;;;;;;;;;;;;;-145.06;0.00;60892.56;4711292;29;20382;-89
2022/03/26 05:08:58;;;;;;;;;;;;;;;-145.06;0.00;60892.56;4710865;29;20033;-89
2022/03/26 05:11:37;;;;;;;;;;;;;;;-145.06;0.00;60892.56;4710562;29;20397;-89
2022/03/26 05:14:16;;;;;;;;;;;;;;;-145.06;0.00;60892.56;4709389;29;19959;-90
2022/03/26 05:16:56;;;;;;;;;;;;;;;-145.06;0.00;60892.56;4694041;29;19924;-90
2022/03/26 05:19:35;;;;;;;;;;;;;;;-145.06;0.00;60892.56;4716636;29;20354;-89
2022/03/26 05:22:14;;;;;;;;;;;;;;;-145.06;0.00;60892.56;4710076;29;19919;-89
2022/03/26 05:24:54;;;;;;;;;;;;;;;-145.06;0.00;60892.56;4703334;29;19916;-90
2022/03/26 05:27:33;;;;;;;;;;;;;;;-145.06;0.00;60892.56;4711558;29;20370;-89
2022/03/26 05:30:12;;;;;;;;;;;;;;;-145.06;0.00;60892.56;4703222;29;19920;-89
2022/03/26 05:32:51;;;;;;;;;;;;;;;-145.06;0.00;60892.56;4706906;29;20310;-90
2022/03/26 05:35:30;;;;;;;;;;;;;;;-145.06;0.00;60892.56;4710381;29;19915;-89
2022/03/26 05:38:10;;;;;;;;;;;;;;;-145.06;0.00;60892.56;4706452;29;19955;-90
2022/03/26 05:40:49;;;;;;;;;;;;;;;-145.06;0.00;60892.56;4710028;29;19916;-88
2022/03/26 05:43:28;;;;;;;;;;;;;;;-145.06;0.00;60892.56;4711278;29;19920;-90
2022/03/26 05:46:07;;;;;;;;;;;;;;;-145.06;0.00;60892.56;4712429;29;19924;-89
2022/03/26 05:48:46;;;;;;;;;;;;;;;-145.06;0.00;60892.56;4693729;29;19912;-89
2022/03/26 05:51:25;;;;;;;;;;;;;;;-145.06;0.00;60892.56;4710971;29;20359;-89
2022/03/26 05:54:04;;;;;;;;;;;;;;;-145.06;0.00;60892.56;4710609;29;19920;-89
2022/03/26 05:56:51;;;;;;;;;;;;;;;-145.06;0.00;60892.56;4711181;29;20351;-89
2022/03/26 05:59:31;;;;;;;;;;;;;;;-145.06;0.00;60892.56;4705799;29;19963;-89
2022/03/26 06:02:12;;;;;;;;;;;;;;;-145.06;0.00;60892.56;4703551;29;19955;-90
2022/03/26 06:04:51;;;;;;;;;;;;;;;-145.06;0.00;60892.56;4707334;29;19947;-90
2022/03/26 06:07:30;;;;;;;;;;;;;;;-145.06;0.00;60892.56;4710007;29;19927;-90
2022/03/26 06:10:10;;;;;;;;;;;;;;;-145.06;0.00;60892.56;4701172;29;20003;-89
2022/03/26 06:12:49;;;;;;;;;;;;;;;-145.06;0.00;60892.56;4709939;29;19923;-88
2022/03/26 06:15:28;;;;;;;;;;;;;;;-145.06;0.00;60892.56;4708682;29;19959;-89
2022/03/26 06:18:07;;;;;;;;;;;;;;;-145.06;0.00;60892.56;4709464;29;19915;-89
2022/03/26 06:20:46;;;;;;;;;;;;;;;-145.06;0.00;60892.56;4709438;29;19915;-89
2022/03/26 06:23:25;;;;;;;;;;;;;;;-145.06;0.00;60892.56;4710030;29;19920;-89
2022/03/26 06:26:04;;;;;;;;;;;;;;;-145.06;0.00;60892.56;4703995;29;19919;-88
2022/03/26 06:28:43;;;;;;;;;;;;;;;-145.06;0.00;60892.56;4702197;29;20264;-89
2022/03/26 06:31:22;;;;;;;;;;;;;;;-145.06;0.00;60892.56;4708588;29;19915;-88
2022/03/26 06:34:01;;;;;;;;;;;;;;;-145.06;0.00;60892.56;4709081;29;19916;-90
2022/03/26 06:36:40;;;;;;;;;;;;;;;-145.06;0.00;60892.56;4708131;29;20315;-89
2022/03/26 06:39:19;;;;;;;;;;;;;;;-145.06;0.00;60892.56;4709449;29;20050;-90
2022/03/26 06:42:01;;;;;;;;;;;;;;;-145.06;0.00;60892.56;4710036;29;20014;-91
2022/03/26 06:44:43;;;;;;;;;;;;;;;-145.06;0.00;60892.56;4695812;29;19912;-90
2022/03/26 06:47:22;;;;;;;;;;;;;;;-145.06;0.00;60892.56;4693895;29;19916;-90
2022/03/26 06:50:01;;;;;;;;;;;;;;;-145.06;0.00;60892.56;4708929;29;19963;-90
2022/03/26 06:52:40;;;;;;;;;;;;;;;-145.06;0.00;60892.56;4711068;29;19912;-89
2022/03/26 06:55:19;;;;;;;;;;;;;;;-145.06;0.00;60892.56;4709314;29;20417;-89
2022/03/26 06:57:58;;;;;;;;;;;;;;;-145.06;0.00;60892.56;4708382;29;19990;-90
2022/03/26 07:00:37;;;;;;;;;;;;;;;-145.06;0.00;60892.56;4697769;29;19920;-90
2022/03/26 07:03:16;;;;;;;;;;;;;;;-145.06;0.00;60892.56;4700997;29;20672;-90
2022/03/26 07:05:55;;;;;;;;;;;;;;;-145.06;0.00;60892.56;4709090;29;19920;-90
2022/03/26 07:08:35;;;;;;;;;;;;;;;-145.06;0.00;60892.56;4707699;29;20007;-90
2022/03/26 07:11:14;;;;;;;;;;;;;;;-145.06;0.00;60892.56;4705753;29;19916;-89
2022/03/26 07:13:53;;;;;;;;;;;;;;;-145.06;0.00;60892.56;4703260;29;19916;-91
2022/03/26 07:16:32;;;;;;;;;;;;;;;-145.06;0.00;60892.56;4709279;29;19947;-90
2022/03/26 07:19:11;;;;;;;;;;;;;;;-145.06;0.00;60892.56;4709535;29;19955;-90
2022/03/26 07:21:50;;;;;;;;;;;;;;;-145.06;0.00;60892.56;4708064;29;19919;-90
2022/03/26 07:24:29;;;;;;;;;;;;;;;-145.06;0.00;60892.56;4708528;29;19911;-92
2022/03/26 07:27:08;;;;;;;;;;;;;;;-145.06;0.00;60892.56;4703210;29;19915;-90
2022/03/26 07:29:48;;;;;;;;;;;;;;;-145.06;0.00;60892.56;4700050;29;19920;-90
2022/03/26 07:32:27;;;;;;;;;;;;;;;-145.06;0.00;60892.56;4707279;29;19919;-90
2022/03/26 07:35:07;;;;;;;;;;;;;;;-145.06;0.00;60892.56;4709693;29;20002;-90
2022/03/26 07:37:46;;;;;;;;;;;;;;;-145.06;0.00;60892.56;4710009;29;19911;-90
2022/03/26 07:40:25;;;;;;;;;;;;;;;-145.06;0.00;60892.56;4709210;29;20022;-91
2022/03/26 07:43:04;;;;;;;;;;;;;;;-145.06;0.00;60892.56;4703001;29;20010;-89
2022/03/26 07:45:43;;;;;;;;;;;;;;;-145.06;0.00;60892.56;4704060;29;19916;-89
2022/03/26 07:48:22;;;;;;;;;;;;;;;-145.06;0.00;60892.56;4710070;29;19958;-90
2022/03/26 07:51:01;;;;;;;;;;;;;;;-145.06;0.00;60892.56;4705885;29;19943;-89
2022/03/26 07:53:40;;;;;;;;;;;;;;;-145.06;0.00;60892.56;4694592;29;19912;-90
2022/03/26 07:56:19;;;;;;;;;;;;;;;-145.06;0.00;60892.56;4708546;29;19915;-91
2022/03/26 07:58:58;;;;;;;;;;;;;;;-145.06;0.00;60892.56;4709708;29;20387;-91
2022/03/26 08:01:45;;;;;;;;;;;;;;;-145.06;0.00;60892.56;4703644;29;19923;-91
2022/03/26 08:04:24;;;;;;;;;;;;;;;-145.06;0.00;60892.56;4709989;29;19912;-90
2022/03/26 08:07:03;;;;;;;;;;;;;;;-145.06;0.00;60892.56;4709037;29;19920;-90
2022/03/26 08:09:42;;;;;;;;;;;;;;;-145.06;0.00;60892.56;4707498;29;19962;-91
2022/03/26 08:12:21;;;;;;;;;;;;;;;-145.06;0.00;60892.56;4691509;29;19916;-90
2022/03/26 08:15:00;;;;;;;;;;;;;;;-145.06;0.00;60892.56;4691370;29;19912;-90
2022/03/26 08:17:39;;;;;;;;;;;;;;;-145.06;0.00;60892.56;4708596;29;19915;-91
2022/03/26 08:20:17;;;;;;;;;;;;;;;-145.06;0.00;60892.56;4709143;29;19920;-89
2022/03/26 08:22:57;;;;;;;;;;;;;;;-145.06;0.00;60892.56;4692086;29;20210;-90
2022/03/26 08:28:34;;;;;;;;;;;;;;;-145.06;0.00;60892.56;4716381;29;19915;-91
2022/03/26 08:31:13;;;;;;;;;;;;;;;-145.06;0.00;60892.56;4707872;29;19920;-91
2022/03/26 08:33:52;;;;;;;;;;;;;;;-145.06;0.00;60892.56;4709132;29;20236;-90
2022/03/26 08:39:33;;;;;;;;;;;;;;;-145.06;0.00;60892.56;4709843;29;19988;-90
2022/03/26 08:42:18;;;;;;;;;;;;;;;-145.06;0.00;60892.56;4704820;29;19955;-92
2022/03/26 08:44:57;;;;;;;;;;;;;;;-145.06;0.00;60892.56;4709067;29;20362;-91
2022/03/26 08:47:36;;;;;;;;;;;;;;;-145.06;0.00;60892.56;4716121;29;19919;-90
2022/03/26 08:50:15;;;;;;;;;;;;;;;-145.06;0.00;60892.56;4692415;29;19920;-91
2022/03/26 08:52:54;;;;;;;;;;;;;;;-145.06;0.00;60892.56;4700321;29;19916;-91
2022/03/26 08:55:33;;;;;;;;;;;;;;;-145.06;0.00;60892.56;4705876;29;19916;-91
2022/03/26 08:58:13;;;;;;;;;;;;;;;-145.06;0.00;60892.56;4708906;29;19920;-91
2022/03/26 09:01:22;;;;;;;;;;;;;;;-145.06;0.00;60892.56;4709282;29;19912;-92
2022/03/26 09:04:21;;;;;;;;;;;;;;;;;;;;;
2022/03/26 09:07:04;;;;;;;;;;;;;;;-145.06;0.00;60892.56;4716087;29;19920;-92
2022/03/26 09:09:42;;;;;;;;;;;;;;;-145.06;0.00;60892.56;4698661;29;19915;-92
2022/03/26 09:12:21;;;;;;;;;;;;;;;-145.06;0.00;60892.56;4712557;29;19915;-91
2022/03/26 09:15:01;;;;;;;;;;;;;;;-145.06;0.00;60892.56;4713650;29;19915;-90
2022/03/26 09:17:42;;;;;;;;;;;;;;;-145.06;0.00;60892.56;4711995;29;19946;-89
2022/03/26 09:20:21;;;;;;;;;;;;;;;-145.06;0.00;60892.56;4710888;29;19954;-91
2022/03/26 09:23:00;;;;;;;;;;;;;;;-145.06;0.00;60892.56;4701243;29;20271;-92
2022/03/26 09:25:44;;;;;;;;;;;;;;;-145.06;0.00;60892.56;4718412;29;19916;-91
2022/03/26 09:28:23;;;;;;;;;;;;;;;-145.06;0.00;60892.56;4711662;29;19911;-92
2022/03/26 09:31:02;;;;;;;;;;;;;;;-145.06;0.00;60892.56;4706049;29;19959;-91
2022/03/26 09:33:42;;;;;;;;;;;;;;;-145.06;0.00;60892.56;4712355;29;19916;-92
2022/03/26 09:36:21;;;;;;;;;;;;;;;-145.06;0.00;60892.56;4702739;29;20279;-92
2022/03/26 09:39:00;;;;;;;;;;;;;;;-145.06;0.00;60892.56;4711801;29;19912;-93
2022/03/26 09:41:42;;;;;;;;;;;;;;;-145.06;0.00;60892.56;4712398;29;19916;-91
2022/03/26 09:44:21;;;;;;;;;;;;;;;15.88;0.00;60892.56;4711030;29;20378;-91
2022/03/26 09:47:03;;;;;;;;;;;;;;;12.97;0.00;60892.56;4719147;29;19959;-90
2022/03/26 09:49:48;;;;;;;;;;;;;;;13.13;0.00;60892.56;4707336;29;20367;-91
2022/03/26 09:52:27;;;;;;;;;;;;;;;13.25;0.00;60892.56;4712066;29;19920;-90
2022/03/26 09:55:11;;;;;;;;;;;;;;;-145.06;0.00;60892.56;4712590;29;19912;-91
2022/03/26 09:57:52;;;;;;;;;;;;;;;-145.06;0.00;60892.56;4702468;29;19916;-91
2022/03/26 10:00:33;;;;;;;;;;;;;;;-145.06;0.00;60892.56;4707079;29;19915;-92
2022/03/26 10:03:13;;;;;;;;;;;;;;;-145.06;0.00;60892.56;4711648;29;19947;-92
2022/03/26 10:06:23;;;;;;;;;;;;;;;-145.06;0.00;60892.56;4713079;29;19916;-92
2022/03/26 10:09:03;;;;;;;;;;;;;;;-145.06;0.00;60892.56;4703825;29;19916;-91
2022/03/26 10:11:42;;;;;;;;;;;;;;;14.33;0.00;60892.56;4706623;29;19920;-90
2022/03/26 10:14:23;;;;;;;;;;;;;;;-145.06;0.00;60892.56;4711538;29;19911;-91
2022/03/26 10:17:16;;;;;;;;;;;;;;;-145.06;0.00;60892.56;4705607;29;19916;-91
2022/03/26 10:19:56;;;;;;;;;;;;;;;-145.06;0.00;60892.56;4708671;29;20267;-91
2022/03/26 10:22:40;;;;;;;;;;;;;;;-145.06;0.00;60892.56;4695595;29;20018;-92
2022/03/26 10:25:21;;;;;;;;;;;;;;;-145.06;0.00;60892.56;4705541;29;19916;-92
2022/03/26 10:28:00;;;;;;;;;;;;;;;-145.06;0.00;60892.56;4706046;29;19911;-91
2022/03/26 10:33:37;;;;;;;;;;;;;;;-145.06;0.00;60892.56;4706508;29;19920;-89
2022/03/26 10:36:20;;;;;;;;;;;;;;;-145.06;0.00;60892.56;4710009;29;19912;-89
2022/03/26 10:39:02;;;;;;;;;;;;;;;-145.06;0.00;60892.56;4702293;29;19916;-91
2022/03/26 10:41:41;;;;;;;;;;;;;;;17.18;0.00;60892.56;4704874;29;20373;-91
2022/03/26 10:44:28;;;;;;;;;;;;;;;-145.06;0.00;60892.56;4708671;29;20278;-91
2022/03/26 10:47:14;;;;;;;;;;;;;;;-145.06;0.00;60892.56;4707659;29;19920;-91
2022/03/26 10:49:56;;;;;;;;;;;;;;;-145.06;0.00;60892.56;4715974;29;20401;-92
2022/03/26 10:52:35;;;;;;;;;;;;;;;-145.06;0.00;60892.56;4712440;29;19912;-91
2022/03/26 10:55:23;;;;;;;;;;;;;;;-145.06;0.00;60892.56;4710172;29;19916;-92
2022/03/26 10:58:08;;;;;;;;;;;;;;;16.98;0.00;60892.56;4704911;29;20014;-91
2022/03/26 11:00:47;;;;;;;;;;;;;;;18.48;0.00;60892.56;4703956;29;20295;-90
2022/03/26 11:03:26;;;;;;;;;;;;;;;-145.06;0.00;60892.56;4708052;29;19920;-92
2022/03/26 11:06:09;;;;;;;;;;;;;;;-145.06;0.00;60892.56;4707740;29;20339;-91
2022/03/26 11:08:48;;;;;;;;;;;;;;;-145.06;0.00;60892.56;4707868;29;19924;-91
2022/03/26 11:11:28;;;;;;;;;;;;;;;-145.06;0.00;60892.56;4707840;29;19920;-91
2022/03/26 11:14:12;;;;;;;;;;;;;;;-145.06;0.00;60892.56;4706869;29;19915;-90
2022/03/26 11:16:54;;;;;;;;;;;;;;;-145.06;0.00;60892.56;4703825;29;20486;-91
2022/03/26 11:19:52;;;;;;;;;;;;;;;-145.06;0.00;60892.56;4697613;29;19958;-92
2022/03/26 11:22:50;;;;;;;;;;;;;;;-145.06;0.00;60892.56;4709487;29;19916;-92
2022/03/26 11:25:44;;;;;;;;;;;;;;;-145.06;0.00;60892.56;4708678;29;20390;-91
2022/03/26 11:28:42;;;;;;;;;;;;;;;-145.06;0.00;60892.56;4705250;29;19915;-91
2022/03/26 11:31:28;;;;;;;;;;;;;;;-145.06;0.00;60892.56;4703523;29;19916;-92
2022/03/26 11:34:09;;;;;;;;;;;;;;;-145.06;0.00;60892.56;4704948;29;19951;-91
2022/03/26 11:36:51;;;;;;;;;;;;;;;-145.06;0.00;60892.56;4704729;29;19915;-91
2022/03/26 11:39:42;;;;;;;;;;;;;;;-145.06;0.00;60892.56;4699718;29;20417;-92
2022/03/26 11:42:24;;;;;;;;;;;;;;;-145.06;0.00;60892.56;4712723;29;20264;-91
2022/03/26 11:51:28;;;;;;;;;;;;;;;-145.06;0.00;60892.56;4676815;29;19963;-92
2022/03/26 11:54:12;;;;;;;;;;;;;;;-145.06;0.00;60892.56;4708195;29;19916;-91
2022/03/26 11:57:08;;;;;;;;;;;;;;;-145.06;0.00;60892.56;4706171;29;19919;-91
2022/03/26 11:59:47;;;;;;;;;;;;;;;-145.06;0.00;60892.56;4707754;29;19919;-92
2022/03/26 12:02:27;;;;;;;;;;;;;;;-145.06;0.00;60892.56;4710458;29;20525;-92
2022/03/26 12:08:15;;;;;;;;;;;;;;;-145.06;0.00;60892.56;4714363;29;19912;-91
2022/03/26 12:10:54;;;;;;;;;;;;;;;-145.06;0.00;60892.56;4708685;29;19911;-91
2022/03/26 12:13:34;;;;;;;;;;;;;;;-145.06;0.00;60892.56;4705513;29;20371;-93
2022/03/26 12:16:12;;;;;;;;;;;;;;;-145.06;0.00;60892.56;4703893;29;19915;-92
2022/03/26 12:18:51;;;;;;;;;;;;;;;-145.06;0.00;60892.56;4704852;29;19928;-92
2022/03/26 12:21:48;;;;;;;;;;;;;;;-145.06;0.00;60892.56;4707864;29;19920;-91
2022/03/26 12:24:30;;;;;;;;;;;;;;;-145.06;0.00;60892.56;4700546;29;20730;-92
2022/03/26 12:27:09;;;;;;;;;;;;;;;-145.06;0.00;60892.56;4708546;29;19912;-92
2022/03/26 12:29:48;;;;;;;;;;;;;;;-145.06;0.00;60892.56;4707449;29;20374;-92
2022/03/26 12:32:31;;;;;;;;;;;;;;;-145.06;0.00;60892.56;4706864;29;20322;-92
2022/03/26 12:35:10;;;;;;;;;;;;;;;-145.06;0.00;60892.56;4702347;29;19916;-91
2022/03/26 12:37:50;;;;;;;;;;;;;;;-145.06;0.00;60892.56;4690346;29;19912;-91
2022/03/26 12:40:30;;;;;;;;;;;;;;;-145.06;0.00;60892.56;4705469;29;19911;-91
2022/03/26 12:43:10;;;;;;;;;;;;;;;-145.06;0.00;60892.56;4708115;29;19920;-92
2022/03/26 12:45:49;;;;;;;;;;;;;;;-145.06;0.00;60892.56;4701781;29;19950;-92
2022/03/26 12:48:29;;;;;;;;;;;;;;;-145.06;0.00;60892.56;4708132;29;19911;-91
2022/03/26 12:51:08;;;;;;;;;;;;;;;-145.06;0.00;60892.56;4708881;29;19912;-91
2022/03/26 12:53:47;;;;;;;;;;;;;;;-145.06;0.00;60892.56;4707954;29;19919;-92
2022/03/26 12:56:26;;;;;;;;;;;;;;;-145.06;0.00;60892.56;4711001;29;19915;-92
2022/03/26 12:59:06;;;;;;;;;;;;;;;-145.06;0.00;60892.56;4710688;29;19916;-91
2022/03/26 13:01:45;;;;;;;;;;;;;;;-145.06;0.00;60892.56;4711380;29;20011;-92
2022/03/26 13:04:24;;;;;;;;;;;;;;;-145.06;0.00;60892.56;4711089;29;19915;-91
2022/03/26 13:07:03;;;;;;;;;;;;;;;-145.06;0.00;60892.56;4710914;29;20010;-91
2022/03/26 13:09:42;;;;;;;;;;;;;;;-145.06;0.00;60892.56;4710803;29;20006;-92
2022/03/26 13:12:29;;;;;;;;;;;;;;;-145.06;0.00;60892.56;4711162;29;19911;-92
2022/03/26 13:15:08;;;;;;;;;;;;;;;-145.06;0.00;60892.56;4707208;29;19924;-92
2022/03/26 13:17:47;;;;;;;;;;;;;;;20.78;0.00;60892.56;4711382;29;19939;-92
2022/03/26 13:20:37;;;;;;;;;;;;;;;20.81;0.00;60892.56;4709786;29;19915;-93
2022/03/26 13:23:16;;;;;;;;;;;;;;;20.82;0.00;60892.56;4709816;29;19928;-91
2022/03/26 13:25:56;;;;;;;;;;;;;;;20.83;0.00;60892.56;4709891;29;19998;-91
2022/03/26 13:28:36;;;;;;;;;;;;;;;20.83;0.00;60892.56;4701848;29;19916;-92
2022/03/26 13:31:19;;;;;;;;;;;;;;;20.80;0.00;60892.56;4715632;29;19915;-92
2022/03/26 13:34:07;;;;;;;;;;;;;;;20.80;0.00;60892.56;4708826;29;19915;-92
2022/03/26 13:36:47;;;;;;;;;;;;;;;20.82;0.00;60892.56;4710701;29;20256;-92
2022/03/26 13:39:26;;;;;;;;;;;;;;;20.83;0.00;60892.56;4709882;29;20678;-91
2022/03/26 13:42:09;;;;;;;;;;;;;;;20.86;0.00;81616.88;4708217;29;19919;-92
2022/03/26 13:44:49;;;;;;;;;;;;;;;-145.06;0.00;60892.56;4706616;29;19924;-92
2022/03/26 13:47:35;;;;;;;;;;;;;;;20.87;0.00;60892.56;4698986;29;19920;-92
2022/03/26 13:50:15;;;;;;;;;;;;;;;-145.06;0.00;60892.56;4709488;29;19916;-92
2022/03/26 13:52:54;;;;;;;;;;;;;;;20.89;0.00;60892.56;4710183;29;19924;-93
2022/03/26 13:55:34;;;;;;;;;;;;;;;-145.06;0.00;60892.56;4710409;29;19916;-92
2022/03/26 13:58:17;;;;;;;;;;;;;;;20.90;0.00;60892.56;4710588;29;19916;-92
2022/03/26 14:00:56;;;;;;;;;;;;;;;20.93;0.00;60892.56;4707792;29;19919;-92
2022/03/26 14:03:36;;;;;;;;;;;;;;;-145.06;0.00;60892.56;4698293;29;20015;-93
2022/03/26 14:06:15;;;;;;;;;;;;;;;20.93;0.00;60892.56;4708794;29;19915;-92